Terminal Aerodrome Forecast
Issued by NWS

Home | Current Version | Previous Version | Text Only | Print | Product List | Glossary On
Versions: 1 2 3 4 5 6 7 8 9 10 11 12 13 14 15 16 17 18 19 20 21 22 23 24
000
FTUS41 KCTP 192325
TAFBFD
TAF
KBFD 192325Z 2000/2024 29010G20KT P6SM SKC
     FM200100 31007KT P6SM SKC
     FM200600 32005KT P6SM OVC025
     FM201500 34006KT P6SM SCT030
     FM202300 09005KT P6SM SCT250=

USA.gov is the U.S. government's official web portal to all federal, state and local government web resources and services.